Terminal Aerodrome Forecast
Issued by NWS Duluth, MN

Home | Current Version | Previous Version | Text Only | Print | Product List | Glossary On
Versions: 1 2 3 4 5 6 7 8 9 10 11 12 13 14
000
FTUS43 KDLH 021700
TAFDLH
TAF
KDLH 021739Z 0218/0318 20010G16KT P6SM SCT060
     FM030100 16006KT P6SM SKC
     FM030600 VRB03KT P6SM SCT150 WS015/22040KT
     FM031400 21009KT P6SM VCSH SCT120=

USA.gov is the U.S. government's official web portal to all federal, state and local government web resources and services.